createdAt,value
2018-08-22T00:02:23.800Z,22.99
2018-08-22T00:04:51.882Z,23.09
2018-08-22T00:07:20.051Z,23.17
2018-08-22T00:09:48.154Z,22.93
2018-08-22T00:12:16.236Z,22.87
2018-08-22T00:14:44.308Z,22.94
2018-08-22T00:17:12.377Z,23.01
2018-08-22T00:19:40.572Z,23.14
2018-08-22T00:22:08.694Z,23.06
2018-08-22T00:24:36.755Z,23.14
2018-08-22T00:27:04.873Z,23.13
2018-08-22T00:29:32.930Z,22.93
2018-08-22T00:32:00.991Z,22.95
2018-08-22T00:34:29.073Z,22.98
2018-08-22T00:36:57.150Z,22.89
2018-08-22T00:39:25.234Z,22.85
2018-08-22T00:41:53.330Z,22.82
2018-08-22T00:44:21.520Z,22.81
2018-08-22T00:46:49.582Z,22.82
2018-08-22T00:49:17.675Z,22.85
2018-08-22T00:51:45.763Z,22.77
2018-08-22T00:54:13.835Z,22.74
2018-08-22T00:56:41.920Z,22.73
2018-08-22T00:59:10.408Z,22.67
2018-08-22T01:01:38.471Z,22.64
2018-08-22T01:04:06.538Z,22.76
2018-08-22T01:06:34.668Z,22.72
2018-08-22T01:09:02.735Z,22.62
2018-08-22T01:11:30.807Z,22.59
2018-08-22T01:13:58.894Z,22.54
2018-08-22T01:16:26.994Z,22.54
2018-08-22T01:18:55.039Z,22.45
2018-08-22T01:21:23.108Z,22.49
2018-08-22T01:23:51.171Z,22.39
2018-08-22T01:26:19.235Z,22.46
2018-08-22T01:28:47.303Z,22.47
2018-08-22T01:31:15.378Z,22.43
2018-08-22T01:33:43.451Z,22.47
2018-08-22T01:36:11.534Z,22.50
2018-08-22T01:38:39.635Z,22.50
2018-08-22T01:41:07.673Z,22.37
2018-08-22T01:43:35.734Z,22.41
2018-08-22T01:46:03.828Z,22.27
2018-08-22T01:48:31.906Z,22.33
2018-08-22T01:50:59.979Z,22.43
2018-08-22T01:53:28.049Z,22.26
2018-08-22T01:55:56.241Z,22.24
2018-08-22T01:58:24.362Z,22.23
2018-08-22T02:00:52.435Z,22.12
2018-08-22T02:03:20.503Z,22.14
2018-08-22T02:05:48.589Z,22.17
2018-08-22T02:08:16.667Z,22.12
2018-08-22T02:10:44.724Z,22.12
2018-08-22T02:13:12.855Z,22.03
2018-08-22T02:15:40.931Z,22.06
2018-08-22T02:18:09.008Z,22.01
2018-08-22T02:20:37.101Z,21.93
2018-08-22T02:23:05.183Z,21.97
2018-08-22T02:25:33.252Z,22.02
2018-08-22T02:28:01.329Z,21.92
2018-08-22T02:30:29.408Z,21.86
2018-08-22T02:32:57.487Z,21.90
2018-08-22T02:35:25.558Z,21.72
2018-08-22T02:37:53.676Z,21.81
2018-08-22T02:40:21.758Z,21.71
2018-08-22T02:42:49.833Z,21.72
2018-08-22T02:45:17.902Z,21.63
2018-08-22T02:47:46.003Z,21.59
2018-08-22T02:50:14.062Z,21.64
2018-08-22T02:52:42.145Z,21.60
2018-08-22T02:55:10.223Z,21.52
2018-08-22T02:57:38.306Z,21.43
2018-08-22T03:00:06.378Z,21.47
2018-08-22T03:02:34.464Z,21.42
2018-08-22T03:05:02.514Z,21.42
2018-08-22T03:07:30.592Z,21.47
2018-08-22T03:09:58.643Z,21.52
2018-08-22T03:12:26.724Z,21.51
2018-08-22T03:14:54.787Z,21.41
2018-08-22T03:17:22.844Z,21.27
2018-08-22T03:19:50.923Z,21.22
2018-08-22T03:22:19.003Z,21.32
2018-08-22T03:24:47.066Z,21.31
2018-08-22T03:27:15.135Z,21.29
2018-08-22T03:29:43.221Z,21.33
2018-08-22T03:32:11.292Z,21.21
2018-08-22T03:34:39.382Z,21.27
2018-08-22T03:37:07.521Z,21.37
2018-08-22T03:39:35.603Z,21.29
2018-08-22T03:42:03.815Z,21.25
2018-08-22T03:44:31.912Z,21.33
2018-08-22T03:47:00.045Z,21.27
2018-08-22T03:49:28.170Z,21.31
2018-08-22T03:51:56.284Z,21.31
2018-08-22T03:54:24.386Z,21.32
2018-08-22T03:56:52.555Z,21.22
2018-08-22T03:59:20.639Z,21.25
2018-08-22T04:01:48.736Z,21.38
2018-08-22T04:04:16.833Z,21.31
2018-08-22T04:06:44.912Z,21.23
2018-08-22T04:09:13.018Z,21.24
2018-08-22T04:11:41.150Z,21.22
2018-08-22T04:14:09.267Z,21.41
2018-08-22T04:16:37.355Z,21.28
2018-08-22T04:19:05.458Z,21.31
2018-08-22T04:21:33.539Z,21.27
2018-08-22T04:24:01.659Z,21.33
2018-08-22T04:26:29.737Z,21.18
2018-08-22T04:28:57.824Z,21.22
2018-08-22T04:31:25.910Z,21.18
2018-08-22T04:33:53.996Z,21.22
2018-08-22T04:36:22.068Z,21.09
2018-08-22T04:38:50.151Z,21.08
2018-08-22T04:41:18.263Z,21.00
2018-08-22T04:43:46.392Z,20.96
2018-08-22T04:46:14.456Z,21.06
2018-08-22T04:48:42.548Z,21.01
2018-08-22T04:51:10.635Z,20.88
2018-08-22T04:53:38.691Z,20.92
2018-08-22T04:56:06.792Z,21.01
2018-08-22T04:58:34.864Z,20.99
2018-08-22T05:01:02.936Z,20.94
2018-08-22T05:03:31.067Z,20.89
2018-08-22T05:05:59.176Z,20.96
2018-08-22T05:08:27.218Z,20.93
2018-08-22T05:10:55.308Z,20.89
2018-08-22T05:13:23.387Z,20.87
2018-08-22T05:15:51.447Z,20.89
2018-08-22T05:18:19.554Z,20.88
2018-08-22T05:20:47.639Z,20.93
2018-08-22T05:23:15.699Z,20.91
2018-08-22T05:25:43.843Z,20.87
2018-08-22T05:28:11.920Z,20.85
2018-08-22T05:30:40.072Z,20.87
2018-08-22T05:33:08.159Z,20.89
2018-08-22T05:35:36.207Z,20.94
2018-08-22T05:38:04.372Z,21.04
2018-08-22T05:40:32.524Z,21.07
2018-08-22T05:43:00.578Z,21.05
2018-08-22T05:45:28.656Z,21.08
2018-08-22T05:47:56.723Z,21.17
2018-08-22T05:50:24.804Z,21.16
2018-08-22T05:52:52.866Z,21.16
2018-08-22T05:55:20.979Z,21.23
2018-08-22T05:57:49.033Z,21.24
2018-08-22T06:00:17.099Z,21.29
2018-08-22T06:02:45.178Z,21.30
2018-08-22T06:05:13.261Z,21.38
2018-08-22T06:07:41.318Z,21.44
2018-08-22T06:10:09.405Z,21.47
2018-08-22T06:12:37.472Z,21.43
2018-08-22T06:15:05.646Z,21.55
2018-08-22T06:17:33.893Z,21.63
2018-08-22T06:20:01.964Z,21.78
2018-08-22T06:22:30.019Z,21.82
2018-08-22T06:24:58.120Z,21.89
2018-08-22T06:27:26.211Z,21.99
2018-08-22T06:29:54.380Z,22.09
2018-08-22T06:32:22.466Z,22.20
2018-08-22T06:34:50.542Z,22.20
2018-08-22T06:37:18.988Z,22.25
2018-08-22T06:39:47.168Z,22.28
2018-08-22T06:42:15.256Z,22.40
2018-08-22T06:44:43.332Z,22.40
2018-08-22T06:47:11.401Z,22.55
2018-08-22T06:49:39.485Z,22.66
2018-08-22T06:52:07.572Z,22.84
2018-08-22T06:54:35.663Z,22.95
2018-08-22T06:57:03.872Z,22.98
2018-08-22T06:59:31.955Z,23.02
2018-08-22T07:02:00.033Z,23.01
2018-08-22T07:04:28.133Z,23.11
2018-08-22T07:06:56.203Z,23.22
2018-08-22T07:09:24.280Z,23.26
2018-08-22T07:11:52.468Z,23.35
2018-08-22T07:14:20.539Z,23.41
2018-08-22T07:16:48.688Z,23.45
2018-08-22T07:19:16.750Z,23.49
2018-08-22T07:21:44.821Z,23.59
2018-08-22T07:24:12.943Z,23.67
2018-08-22T07:26:41.006Z,23.75
2018-08-22T07:29:09.091Z,23.80
2018-08-22T07:31:37.181Z,23.88
2018-08-22T07:34:05.417Z,23.98
2018-08-22T07:36:33.512Z,24.06
2018-08-22T07:39:01.715Z,24.14
2018-08-22T07:41:29.782Z,24.21
2018-08-22T07:43:57.852Z,24.22
2018-08-22T07:46:25.939Z,24.43
2018-08-22T07:48:54.047Z,24.46
2018-08-22T07:51:22.107Z,24.45
2018-08-22T07:53:50.185Z,24.48
2018-08-22T07:56:18.289Z,24.64
2018-08-22T07:58:46.400Z,24.83
2018-08-22T08:01:14.564Z,24.97
2018-08-22T08:03:42.635Z,24.92
2018-08-22T08:06:10.732Z,24.93
2018-08-22T08:08:38.852Z,24.93
2018-08-22T08:11:06.920Z,25.06
2018-08-22T08:13:34.961Z,25.01
2018-08-22T08:16:03.111Z,24.89
2018-08-22T08:18:31.198Z,25.12
2018-08-22T08:20:59.271Z,25.16
2018-08-22T08:23:27.320Z,25.21
2018-08-22T08:25:55.440Z,25.25
2018-08-22T08:28:23.531Z,25.37
2018-08-22T08:30:51.624Z,25.41
2018-08-22T08:33:19.715Z,25.48
2018-08-22T08:35:47.866Z,25.59
2018-08-22T08:38:15.895Z,25.63
2018-08-22T08:40:43.980Z,25.73
2018-08-22T08:43:12.062Z,25.65
2018-08-22T08:45:40.287Z,25.75
2018-08-22T08:48:08.371Z,25.88
2018-08-22T08:50:36.451Z,25.96
2018-08-22T08:53:04.577Z,25.96
2018-08-22T08:55:32.770Z,26.03
2018-08-22T08:58:00.856Z,26.04
2018-08-22T09:00:28.948Z,26.23
2018-08-22T09:02:57.138Z,26.29
2018-08-22T09:05:25.223Z,26.37
2018-08-22T09:07:53.310Z,26.37
2018-08-22T09:10:21.400Z,26.47
2018-08-22T09:12:49.652Z,26.55
2018-08-22T09:15:17.768Z,26.63
2018-08-22T09:17:45.883Z,26.71
2018-08-22T09:20:13.956Z,26.70
2018-08-22T09:22:42.030Z,26.75
2018-08-22T09:25:10.202Z,26.84
2018-08-22T09:27:38.419Z,26.94
2018-08-22T09:30:06.643Z,27.03
2018-08-22T09:32:34.725Z,27.03
2018-08-22T09:35:02.806Z,27.14
2018-08-22T09:37:30.927Z,27.26
2018-08-22T09:39:59.014Z,27.31
2018-08-22T09:42:27.092Z,27.45
2018-08-22T09:44:55.196Z,27.56
2018-08-22T09:47:23.311Z,27.56
2018-08-22T09:52:25.732Z,27.76
2018-08-22T09:54:59.094Z,27.81
2018-08-22T09:57:27.990Z,27.90
2018-08-22T09:59:56.173Z,28.06
2018-08-22T10:02:24.315Z,28.15
2018-08-22T10:04:52.732Z,28.25
2018-08-22T10:07:20.877Z,28.35
2018-08-22T10:09:49.003Z,28.46
2018-08-22T10:12:17.127Z,28.48
2018-08-22T10:14:45.207Z,28.59
2018-08-22T10:17:13.399Z,28.53
2018-08-22T10:19:41.642Z,28.66
2018-08-22T10:22:09.695Z,28.72
2018-08-22T10:24:37.784Z,28.92
2018-08-22T10:27:05.909Z,28.91
2018-08-22T10:29:34.007Z,28.94
2018-08-22T10:32:02.118Z,28.98
2018-08-22T10:34:30.267Z,29.07
2018-08-22T10:36:58.303Z,29.13
2018-08-22T10:39:26.451Z,29.30
2018-08-22T10:41:54.610Z,29.28
2018-08-22T10:44:22.752Z,29.38
2018-08-22T10:46:50.805Z,29.44
2018-08-22T10:49:18.905Z,29.46
2018-08-22T10:51:46.984Z,29.58
2018-08-22T10:54:15.064Z,29.56
2018-08-22T10:56:43.167Z,29.65
2018-08-22T10:59:11.342Z,29.66
2018-08-22T11:01:39.447Z,29.73
2018-08-22T11:04:07.532Z,29.78
2018-08-22T11:06:35.624Z,29.79
2018-08-22T11:09:05.028Z,29.89
2018-08-22T11:11:33.197Z,30.08
2018-08-22T11:14:01.308Z,30.23
2018-08-22T11:16:29.403Z,30.18
2018-08-22T11:18:57.537Z,30.17
2018-08-22T11:21:36.935Z,30.20
2018-08-22T11:24:16.288Z,30.27
2018-08-22T11:26:55.676Z,30.45
2018-08-22T11:29:35.043Z,30.50
2018-08-22T11:32:14.494Z,30.66
2018-08-22T11:34:43.844Z,30.73
2018-08-22T11:37:13.203Z,31.05
2018-08-22T11:39:42.615Z,31.18
2018-08-22T11:42:10.745Z,31.16
2018-08-22T11:44:38.851Z,31.16
2018-08-22T11:47:06.949Z,31.31
2018-08-22T11:49:35.061Z,31.46
2018-08-22T11:52:03.168Z,31.37
2018-08-22T11:54:31.786Z,31.36
2018-08-22T11:57:00.335Z,31.30
2018-08-22T11:59:28.437Z,31.36
2018-08-22T12:01:56.554Z,31.38
2018-08-22T12:04:24.612Z,31.28
2018-08-22T12:06:52.920Z,31.12
2018-08-22T12:09:21.035Z,31.11
2018-08-22T12:11:49.121Z,31.33
2018-08-22T12:14:17.239Z,31.48
2018-08-22T12:16:45.331Z,31.57
2018-08-22T12:19:13.451Z,31.51
2018-08-22T12:21:41.983Z,31.51
2018-08-22T12:24:10.074Z,31.61
2018-08-22T12:26:38.152Z,31.73
2018-08-22T12:29:06.251Z,31.86
2018-08-22T12:31:34.780Z,31.87
2018-08-22T12:34:02.863Z,31.93
2018-08-22T12:36:30.972Z,31.90
2018-08-22T12:38:59.060Z,31.79
2018-08-22T12:41:27.350Z,31.97
2018-08-22T12:43:55.832Z,32.09
2018-08-22T12:46:24.049Z,32.13
2018-08-22T12:48:52.208Z,32.09
2018-08-22T12:51:20.570Z,32.25
2018-08-22T12:53:49.492Z,32.22
2018-08-22T12:56:17.573Z,32.41
2018-08-22T12:58:45.679Z,32.39
2018-08-22T13:01:13.756Z,32.51
2018-08-22T13:03:41.903Z,32.51
2018-08-22T13:06:09.980Z,32.75
2018-08-22T13:08:38.100Z,32.71
2018-08-22T13:11:06.206Z,32.60
2018-08-22T13:13:34.358Z,32.52
2018-08-22T13:16:02.522Z,32.48
2018-08-22T13:18:30.636Z,32.74
2018-08-22T13:20:58.742Z,32.64
2018-08-22T13:23:26.856Z,32.72
2018-08-22T13:25:54.954Z,32.76
2018-08-22T13:28:23.100Z,32.74
2018-08-22T13:30:51.209Z,32.84
2018-08-22T13:33:19.287Z,32.97
2018-08-22T13:35:47.373Z,33.07
2018-08-22T13:38:15.466Z,33.10
2018-08-22T13:40:43.568Z,33.03
2018-08-22T13:43:11.772Z,33.09
2018-08-22T13:45:39.928Z,33.08
2018-08-22T13:48:08.320Z,33.12
2018-08-22T13:50:36.415Z,33.30
2018-08-22T13:53:04.535Z,33.07
2018-08-22T13:55:32.693Z,33.24
2018-08-22T13:58:00.805Z,33.11
2018-08-22T14:00:28.909Z,33.05
2018-08-22T14:02:57.023Z,33.01
2018-08-22T14:05:25.127Z,33.15
2018-08-22T14:07:53.297Z,33.10
2018-08-22T14:10:21.375Z,33.09
2018-08-22T14:12:49.512Z,33.19
2018-08-22T14:15:17.628Z,33.12
2018-08-22T14:17:45.752Z,33.07
2018-08-22T14:20:13.900Z,33.02
2018-08-22T14:22:42.027Z,33.05
2018-08-22T14:25:10.136Z,33.15
2018-08-22T14:27:38.241Z,33.15
2018-08-22T14:30:06.744Z,33.14
2018-08-22T14:32:34.866Z,33.22
2018-08-22T14:35:03.035Z,33.22
2018-08-22T14:37:31.151Z,33.39
2018-08-22T14:39:59.244Z,33.19
2018-08-22T14:42:27.359Z,33.10
2018-08-22T14:44:55.505Z,33.10
2018-08-22T14:47:23.597Z,33.16
2018-08-22T14:49:51.726Z,33.19
2018-08-22T14:52:19.826Z,33.14
2018-08-22T14:54:47.977Z,33.17
2018-08-22T14:57:16.067Z,33.32
2018-08-22T14:59:44.181Z,33.34
2018-08-22T15:02:12.283Z,33.38
2018-08-22T15:04:40.358Z,33.39
2018-08-22T15:07:08.487Z,33.38
2018-08-22T15:09:36.621Z,33.31
2018-08-22T15:12:04.711Z,33.43
2018-08-22T15:14:32.892Z,33.42
2018-08-22T15:17:00.959Z,33.35
2018-08-22T15:19:29.060Z,33.33
2018-08-22T15:21:57.144Z,33.31
2018-08-22T15:24:25.279Z,33.41
2018-08-22T15:26:53.376Z,33.33
2018-08-22T15:29:21.483Z,33.38
2018-08-22T15:31:49.554Z,33.38
2018-08-22T15:34:17.673Z,33.44
2018-08-22T15:36:45.775Z,33.43
2018-08-22T15:39:14.175Z,33.47
2018-08-22T15:41:42.256Z,33.43
2018-08-22T15:44:10.395Z,33.43
2018-08-22T15:46:38.493Z,33.46
2018-08-22T15:49:06.599Z,33.35
2018-08-22T15:51:34.731Z,33.35
2018-08-22T15:54:09.369Z,33.20
2018-08-22T15:56:38.919Z,33.08
2018-08-22T15:59:07.407Z,33.09
2018-08-22T16:01:35.513Z,33.18
2018-08-22T16:04:03.679Z,33.37
2018-08-22T16:06:31.868Z,33.43
2018-08-22T16:09:00.066Z,33.43
2018-08-22T16:11:28.167Z,33.34
2018-08-22T16:13:56.263Z,33.46
2018-08-22T16:16:24.352Z,33.38
2018-08-22T16:18:54.788Z,33.30
2018-08-22T16:21:22.871Z,33.27
2018-08-22T16:23:50.953Z,33.31
2018-08-22T16:26:19.031Z,33.15
2018-08-22T16:28:54.855Z,33.15
2018-08-22T16:31:24.872Z,33.15
2018-08-22T16:33:52.955Z,33.11
2018-08-22T16:36:26.383Z,32.95
2018-08-22T16:38:54.505Z,32.90
2018-08-22T16:41:22.619Z,32.99
2018-08-22T16:43:50.694Z,33.06
2018-08-22T16:46:18.779Z,33.06
2018-08-22T16:48:49.428Z,32.83
2018-08-22T16:51:17.584Z,32.59
2018-08-22T16:53:59.047Z,32.48
2018-08-22T16:56:27.661Z,32.46
2018-08-22T16:59:01.101Z,32.51
2018-08-22T17:01:35.763Z,32.43
2018-08-22T17:04:03.830Z,32.51
2018-08-22T17:06:31.944Z,32.45
2018-08-22T17:09:00.051Z,32.35
2018-08-22T17:11:28.184Z,32.35
2018-08-22T17:13:56.270Z,32.28
2018-08-22T17:16:25.065Z,32.24
2018-08-22T17:18:53.324Z,32.08
2018-08-22T17:21:21.413Z,32.04
2018-08-22T17:23:49.841Z,32.00
2018-08-22T17:26:19.281Z,31.94
2018-08-22T17:28:49.248Z,31.87
2018-08-22T17:31:17.969Z,31.81
2018-08-22T17:33:51.495Z,31.79
2018-08-22T17:36:19.609Z,31.69
2018-08-22T17:38:49.033Z,31.59
2018-08-22T17:41:17.776Z,31.43
2018-08-22T17:44:00.468Z,31.39
2018-08-22T17:46:30.093Z,31.28
2018-08-22T17:48:58.436Z,31.19
2018-08-22T17:51:26.609Z,31.12
2018-08-22T17:53:54.676Z,31.07
2018-08-22T17:56:24.183Z,30.97
2018-08-22T17:58:53.348Z,30.82
2018-08-22T18:01:21.826Z,30.71
2018-08-22T18:03:49.984Z,30.61
2018-08-22T18:06:18.076Z,30.45
2018-08-22T18:08:46.124Z,30.43
2018-08-22T18:11:14.249Z,30.25
2018-08-22T18:13:42.391Z,30.18
2018-08-22T18:16:10.412Z,29.96
2018-08-22T18:18:38.497Z,29.92
2018-08-22T18:21:06.600Z,29.82
2018-08-22T18:23:37.392Z,29.68
2018-08-22T18:26:05.796Z,29.63
2018-08-22T18:28:33.893Z,29.58
2018-08-22T18:31:01.964Z,29.53
2018-08-22T18:33:30.090Z,29.34
2018-08-22T18:35:58.156Z,29.36
2018-08-22T18:38:26.245Z,29.18
2018-08-22T18:41:06.005Z,29.17
2018-08-22T18:43:34.089Z,29.03
2018-08-22T18:46:08.411Z,28.96
2018-08-22T18:48:36.644Z,28.89
2018-08-22T18:51:05.108Z,28.79
2018-08-22T18:53:33.264Z,28.74
2018-08-22T18:56:11.782Z,28.60
2018-08-22T18:58:40.701Z,28.43
2018-08-22T19:01:08.810Z,28.35
2018-08-22T19:03:37.066Z,28.29
2018-08-22T19:06:05.315Z,28.24
2018-08-22T19:08:35.739Z,28.15
2018-08-22T19:11:03.835Z,28.06
2018-08-22T19:13:31.922Z,27.98
2018-08-22T19:16:06.334Z,27.91
2018-08-22T19:18:34.459Z,27.82
2018-08-22T19:21:06.816Z,27.74
2018-08-22T19:23:34.942Z,27.63
2018-08-22T19:26:04.116Z,27.54
2018-08-22T19:28:34.422Z,27.43
2018-08-22T19:31:02.495Z,27.29
2018-08-22T19:33:30.566Z,27.04
2018-08-22T19:35:58.695Z,26.98
2018-08-22T19:38:27.906Z,26.85
2018-08-22T19:40:56.399Z,26.81
2018-08-22T19:43:24.515Z,26.73
2018-08-22T19:45:52.566Z,26.63
2018-08-22T19:48:20.639Z,26.61
2018-08-22T19:50:48.716Z,26.58
2018-08-22T19:53:16.798Z,26.54
2018-08-22T19:55:44.876Z,26.47
2018-08-22T19:58:22.250Z,26.41
2018-08-22T20:00:52.405Z,26.30
2018-08-22T20:03:29.551Z,26.19
2018-08-22T20:05:58.061Z,26.08
2018-08-22T20:08:31.614Z,25.83
2018-08-22T20:10:59.679Z,25.82
2018-08-22T20:13:38.196Z,25.81
2018-08-22T20:16:06.328Z,25.79
2018-08-22T20:18:34.435Z,25.69
2018-08-22T20:21:02.527Z,25.53
2018-08-22T20:23:30.845Z,25.54
2018-08-22T20:26:00.800Z,25.48
2018-08-22T20:28:29.314Z,25.42
2018-08-22T20:31:02.662Z,25.37
2018-08-22T20:33:34.602Z,25.26
2018-08-22T20:36:03.572Z,25.14
2018-08-22T20:38:38.703Z,25.01
2018-08-22T20:41:13.370Z,24.82
2018-08-22T20:43:42.383Z,24.86
2018-08-22T20:46:14.745Z,24.70
2018-08-22T20:48:43.244Z,24.57
2018-08-22T20:51:13.631Z,24.46
2018-08-22T20:53:49.995Z,24.30
2018-08-22T20:56:25.532Z,24.28
2018-08-22T20:58:58.666Z,24.31
2018-08-22T21:01:28.972Z,24.28
2018-08-22T21:04:00.836Z,24.20
2018-08-22T21:06:29.833Z,24.15
2018-08-22T21:09:03.820Z,24.00
2018-08-22T21:11:37.569Z,23.95
2018-08-22T21:14:12.687Z,23.97
2018-08-22T21:16:41.993Z,23.96
2018-08-22T21:19:18.781Z,23.92
2018-08-22T21:21:54.255Z,23.91
2018-08-22T21:24:24.839Z,23.83
2018-08-22T21:27:00.621Z,23.76
2018-08-22T21:29:31.512Z,23.67
2018-08-22T21:32:00.472Z,23.61
2018-08-22T21:34:33.041Z,23.64
2018-08-22T21:37:01.889Z,23.64
2018-08-22T21:39:30.226Z,23.62
2018-08-22T21:41:58.528Z,23.62
2018-08-22T21:44:26.614Z,23.60
2018-08-22T21:47:00.313Z,23.56
2018-08-22T21:49:28.732Z,23.47
2018-08-22T21:51:58.407Z,23.36
2018-08-22T21:54:26.660Z,23.36
2018-08-22T21:56:54.812Z,23.41
2018-08-22T21:59:22.978Z,23.41
2018-08-22T22:01:56.171Z,23.35
2018-08-22T22:04:55.627Z,23.36
2018-08-22T22:07:23.726Z,23.38
2018-08-22T22:10:03.936Z,23.33
2018-08-22T22:12:36.547Z,23.34
2018-08-22T22:15:05.264Z,23.30
2018-08-22T22:17:33.423Z,23.19
2018-08-22T22:20:01.835Z,23.20
2018-08-22T22:22:29.928Z,23.04
2018-08-22T22:25:03.044Z,22.95
2018-08-22T22:27:31.647Z,22.97
2018-08-22T22:30:02.692Z,22.99
2018-08-22T22:32:31.280Z,22.92
2018-08-22T22:34:59.388Z,22.91
2018-08-22T22:37:27.579Z,22.90
2018-08-22T22:39:55.695Z,22.91
2018-08-22T22:42:26.740Z,22.91
2018-08-22T22:44:55.727Z,22.83
2018-08-22T22:47:26.648Z,22.80
2018-08-22T22:49:54.937Z,22.80
2018-08-22T22:52:28.167Z,22.83
2018-08-22T22:54:58.246Z,22.85
2018-08-22T22:57:26.472Z,22.75
2018-08-22T22:59:54.883Z,22.71
2018-08-22T23:02:25.507Z,22.69
2018-08-22T23:04:54.421Z,22.62
2018-08-22T23:07:24.008Z,22.48
2018-08-22T23:09:53.100Z,22.54
2018-08-22T23:12:26.489Z,22.45
2018-08-22T23:14:55.492Z,22.45
2018-08-22T23:17:23.635Z,22.47
2018-08-22T23:20:04.042Z,22.43
2018-08-22T23:22:32.200Z,22.38
2018-08-22T23:25:00.295Z,22.30
2018-08-22T23:27:28.381Z,22.18
2018-08-22T23:29:56.479Z,22.14
2018-08-22T23:32:24.555Z,22.22
2018-08-22T23:34:52.682Z,22.11
2018-08-22T23:37:20.787Z,22.07
2018-08-22T23:39:48.855Z,22.04
2018-08-22T23:42:17.027Z,21.98
2018-08-22T23:44:45.988Z,21.95
2018-08-22T23:47:14.076Z,21.99
2018-08-22T23:49:45.795Z,21.99
2018-08-22T23:52:14.179Z,21.95
2018-08-22T23:54:45.453Z,22.04
2018-08-22T23:57:19.352Z,22.05
2018-08-22T23:59:47.585Z,21.96
